sensor_id;sensor_type;location;lat;lon;timestamp;temperature;humidity
45044;DHT22;30784;48.490;9.688;2023-04-28T00:00:01;14.20;46.30
45044;DHT22;30784;48.490;9.688;2023-04-28T00:02:28;14.20;46.30
45044;DHT22;30784;48.490;9.688;2023-04-28T00:04:54;14.20;46.30
45044;DHT22;30784;48.490;9.688;2023-04-28T00:07:19;14.20;46.40
45044;DHT22;30784;48.490;9.688;2023-04-28T00:09:45;14.20;46.30
45044;DHT22;30784;48.490;9.688;2023-04-28T00:12:10;14.20;46.20
45044;DHT22;30784;48.490;9.688;2023-04-28T00:14:36;14.20;46.20
45044;DHT22;30784;48.490;9.688;2023-04-28T00:17:02;14.20;46.50
45044;DHT22;30784;48.490;9.688;2023-04-28T00:19:27;14.20;46.40
45044;DHT22;30784;48.490;9.688;2023-04-28T00:21:53;14.30;46.50
45044;DHT22;30784;48.490;9.688;2023-04-28T00:24:19;14.30;47.00
45044;DHT22;30784;48.490;9.688;2023-04-28T00:26:44;14.30;46.60
45044;DHT22;30784;48.490;9.688;2023-04-28T00:29:10;14.30;46.50
45044;DHT22;30784;48.490;9.688;2023-04-28T00:31:35;14.30;46.50
45044;DHT22;30784;48.490;9.688;2023-04-28T00:34:01;14.40;46.50
45044;DHT22;30784;48.490;9.688;2023-04-28T00:36:26;14.40;46.50
45044;DHT22;30784;48.490;9.688;2023-04-28T00:38:56;14.40;46.70
45044;DHT22;30784;48.490;9.688;2023-04-28T00:41:22;14.40;46.70
45044;DHT22;30784;48.490;9.688;2023-04-28T00:43:49;14.40;46.70
45044;DHT22;30784;48.490;9.688;2023-04-28T00:46:23;14.40;46.70
45044;DHT22;30784;48.490;9.688;2023-04-28T00:48:49;14.40;46.60
45044;DHT22;30784;48.490;9.688;2023-04-28T00:51:15;14.40;47.10
45044;DHT22;30784;48.490;9.688;2023-04-28T00:53:41;14.50;47.20
45044;DHT22;30784;48.490;9.688;2023-04-28T00:56:07;14.40;47.20
45044;DHT22;30784;48.490;9.688;2023-04-28T00:58:33;14.50;47.30
45044;DHT22;30784;48.490;9.688;2023-04-28T01:01:06;14.50;47.30
45044;DHT22;30784;48.490;9.688;2023-04-28T01:03:36;14.50;47.10
45044;DHT22;30784;48.490;9.688;2023-04-28T01:06:07;14.50;47.10
45044;DHT22;30784;48.490;9.688;2023-04-28T01:08:34;14.50;47.20
45044;DHT22;30784;48.490;9.688;2023-04-28T01:11:00;14.50;47.40
45044;DHT22;30784;48.490;9.688;2023-04-28T01:13:26;14.50;47.50
45044;DHT22;30784;48.490;9.688;2023-04-28T01:15:52;14.40;47.40
45044;DHT22;30784;48.490;9.688;2023-04-28T01:18:19;14.50;47.50
45044;DHT22;30784;48.490;9.688;2023-04-28T01:20:44;14.40;47.50
45044;DHT22;30784;48.490;9.688;2023-04-28T01:23:14;14.50;47.50
45044;DHT22;30784;48.490;9.688;2023-04-28T01:25:41;14.50;47.50
45044;DHT22;30784;48.490;9.688;2023-04-28T01:28:07;14.50;47.50
45044;DHT22;30784;48.490;9.688;2023-04-28T01:30:33;14.50;47.60
45044;DHT22;30784;48.490;9.688;2023-04-28T01:33:00;14.50;47.60
45044;DHT22;30784;48.490;9.688;2023-04-28T01:35:26;14.40;48.10
45044;DHT22;30784;48.490;9.688;2023-04-28T01:37:51;14.50;47.70
45044;DHT22;30784;48.490;9.688;2023-04-28T01:40:17;14.50;47.70
45044;DHT22;30784;48.490;9.688;2023-04-28T01:42:42;14.50;47.70
45044;DHT22;30784;48.490;9.688;2023-04-28T01:45:08;14.50;47.70
45044;DHT22;30784;48.490;9.688;2023-04-28T01:47:34;14.50;47.70
45044;DHT22;30784;48.490;9.688;2023-04-28T01:50:00;14.50;47.70
45044;DHT22;30784;48.490;9.688;2023-04-28T01:52:26;14.50;47.60
45044;DHT22;30784;48.490;9.688;2023-04-28T01:54:52;14.50;47.70
45044;DHT22;30784;48.490;9.688;2023-04-28T01:57:18;14.50;47.70
45044;DHT22;30784;48.490;9.688;2023-04-28T01:59:44;14.50;47.70
45044;DHT22;30784;48.490;9.688;2023-04-28T02:02:09;14.50;47.70
45044;DHT22;30784;48.490;9.688;2023-04-28T02:04:37;14.50;47.60
45044;DHT22;30784;48.490;9.688;2023-04-28T02:07:03;14.60;47.70
45044;DHT22;30784;48.490;9.688;2023-04-28T02:09:28;14.60;47.70
45044;DHT22;30784;48.490;9.688;2023-04-28T02:11:54;14.50;47.80
45044;DHT22;30784;48.490;9.688;2023-04-28T02:14:19;14.60;47.90
45044;DHT22;30784;48.490;9.688;2023-04-28T02:16:45;14.60;47.80
45044;DHT22;30784;48.490;9.688;2023-04-28T02:19:10;14.50;47.70
45044;DHT22;30784;48.490;9.688;2023-04-28T02:21:36;14.60;47.80
45044;DHT22;30784;48.490;9.688;2023-04-28T02:24:02;14.60;47.80
45044;DHT22;30784;48.490;9.688;2023-04-28T02:26:27;14.60;47.80
45044;DHT22;30784;48.490;9.688;2023-04-28T02:28:53;14.60;47.80
45044;DHT22;30784;48.490;9.688;2023-04-28T02:31:18;14.60;47.80
45044;DHT22;30784;48.490;9.688;2023-04-28T02:33:44;14.60;47.90
45044;DHT22;30784;48.490;9.688;2023-04-28T02:36:10;14.60;47.90
45044;DHT22;30784;48.490;9.688;2023-04-28T02:38:35;14.60;47.80
45044;DHT22;30784;48.490;9.688;2023-04-28T02:41:05;14.60;47.80
45044;DHT22;30784;48.490;9.688;2023-04-28T02:43:33;14.60;47.80
45044;DHT22;30784;48.490;9.688;2023-04-28T02:46:00;14.60;47.70
45044;DHT22;30784;48.490;9.688;2023-04-28T02:48:25;14.60;47.70
45044;DHT22;30784;48.490;9.688;2023-04-28T02:50:51;14.60;47.80
45044;DHT22;30784;48.490;9.688;2023-04-28T02:53:18;14.60;47.90
45044;DHT22;30784;48.490;9.688;2023-04-28T02:55:43;14.60;47.80
45044;DHT22;30784;48.490;9.688;2023-04-28T02:58:09;14.60;47.80
45044;DHT22;30784;48.490;9.688;2023-04-28T03:00:34;14.50;47.70
45044;DHT22;30784;48.490;9.688;2023-04-28T03:03:00;14.60;47.70
45044;DHT22;30784;48.490;9.688;2023-04-28T03:05:26;14.60;47.70
45044;DHT22;30784;48.490;9.688;2023-04-28T03:07:52;14.60;47.80
45044;DHT22;30784;48.490;9.688;2023-04-28T03:10:17;14.60;47.80
45044;DHT22;30784;48.490;9.688;2023-04-28T03:12:43;14.60;47.80
45044;DHT22;30784;48.490;9.688;2023-04-28T03:15:08;14.60;47.80
45044;DHT22;30784;48.490;9.688;2023-04-28T03:17:34;14.60;47.80
45044;DHT22;30784;48.490;9.688;2023-04-28T03:20:06;14.50;47.80
45044;DHT22;30784;48.490;9.688;2023-04-28T03:22:32;14.60;47.80
45044;DHT22;30784;48.490;9.688;2023-04-28T03:24:57;14.60;47.90
45044;DHT22;30784;48.490;9.688;2023-04-28T03:27:23;14.60;47.90
45044;DHT22;30784;48.490;9.688;2023-04-28T03:29:48;14.70;47.90
45044;DHT22;30784;48.490;9.688;2023-04-28T03:32:14;14.60;47.80
45044;DHT22;30784;48.490;9.688;2023-04-28T03:34:39;14.60;47.80
45044;DHT22;30784;48.490;9.688;2023-04-28T03:37:05;14.70;48.00
45044;DHT22;30784;48.490;9.688;2023-04-28T03:39:30;14.70;48.10
45044;DHT22;30784;48.490;9.688;2023-04-28T03:41:56;14.70;48.20
45044;DHT22;30784;48.490;9.688;2023-04-28T03:44:21;14.70;48.30
45044;DHT22;30784;48.490;9.688;2023-04-28T03:46:48;14.70;48.30
45044;DHT22;30784;48.490;9.688;2023-04-28T03:49:13;14.70;48.30
45044;DHT22;30784;48.490;9.688;2023-04-28T03:51:39;14.60;48.40
45044;DHT22;30784;48.490;9.688;2023-04-28T03:54:05;14.70;48.40
45044;DHT22;30784;48.490;9.688;2023-04-28T03:56:31;14.70;48.40
45044;DHT22;30784;48.490;9.688;2023-04-28T03:58:56;14.70;48.40
45044;DHT22;30784;48.490;9.688;2023-04-28T04:01:22;14.70;48.50
45044;DHT22;30784;48.490;9.688;2023-04-28T04:03:48;14.70;48.60
45044;DHT22;30784;48.490;9.688;2023-04-28T04:06:13;14.60;48.60
45044;DHT22;30784;48.490;9.688;2023-04-28T04:08:39;14.70;48.70
45044;DHT22;30784;48.490;9.688;2023-04-28T04:11:05;14.70;48.80
45044;DHT22;30784;48.490;9.688;2023-04-28T04:13:30;14.70;49.00
45044;DHT22;30784;48.490;9.688;2023-04-28T04:15:56;14.70;48.90
45044;DHT22;30784;48.490;9.688;2023-04-28T04:18:22;14.70;49.20
45044;DHT22;30784;48.490;9.688;2023-04-28T04:20:47;14.70;49.30
45044;DHT22;30784;48.490;9.688;2023-04-28T04:23:14;14.70;49.30
45044;DHT22;30784;48.490;9.688;2023-04-28T04:25:39;14.70;49.50
45044;DHT22;30784;48.490;9.688;2023-04-28T04:28:05;14.70;49.50
45044;DHT22;30784;48.490;9.688;2023-04-28T04:30:31;14.60;49.80
45044;DHT22;30784;48.490;9.688;2023-04-28T04:32:56;14.60;49.90
45044;DHT22;30784;48.490;9.688;2023-04-28T04:35:22;14.60;50.00
45044;DHT22;30784;48.490;9.688;2023-04-28T04:37:47;14.60;50.00
45044;DHT22;30784;48.490;9.688;2023-04-28T04:40:13;14.50;50.00
45044;DHT22;30784;48.490;9.688;2023-04-28T04:42:38;14.50;50.00
45044;DHT22;30784;48.490;9.688;2023-04-28T04:45:04;14.50;50.30
45044;DHT22;30784;48.490;9.688;2023-04-28T04:47:30;14.50;50.20
45044;DHT22;30784;48.490;9.688;2023-04-28T04:49:56;14.50;50.50
45044;DHT22;30784;48.490;9.688;2023-04-28T04:52:21;14.40;50.50
45044;DHT22;30784;48.490;9.688;2023-04-28T04:54:47;14.40;50.90
45044;DHT22;30784;48.490;9.688;2023-04-28T04:57:13;14.40;50.70
45044;DHT22;30784;48.490;9.688;2023-04-28T04:59:39;14.40;50.90
45044;DHT22;30784;48.490;9.688;2023-04-28T05:02:04;14.40;51.10
45044;DHT22;30784;48.490;9.688;2023-04-28T05:04:30;14.30;51.30
45044;DHT22;30784;48.490;9.688;2023-04-28T05:06:55;14.30;51.50
45044;DHT22;30784;48.490;9.688;2023-04-28T05:09:21;14.30;51.70
45044;DHT22;30784;48.490;9.688;2023-04-28T05:11:47;14.20;51.80
45044;DHT22;30784;48.490;9.688;2023-04-28T05:14:13;14.20;52.30
45044;DHT22;30784;48.490;9.688;2023-04-28T05:16:40;14.10;52.50
45044;DHT22;30784;48.490;9.688;2023-04-28T05:19:06;14.10;52.90
45044;DHT22;30784;48.490;9.688;2023-04-28T05:21:31;14.00;53.00
45044;DHT22;30784;48.490;9.688;2023-04-28T05:23:57;14.00;53.70
45044;DHT22;30784;48.490;9.688;2023-04-28T05:26:23;13.90;54.10
45044;DHT22;30784;48.490;9.688;2023-04-28T05:28:48;13.90;54.50
45044;DHT22;30784;48.490;9.688;2023-04-28T05:31:14;13.80;55.20
45044;DHT22;30784;48.490;9.688;2023-04-28T05:33:41;13.80;55.10
45044;DHT22;30784;48.490;9.688;2023-04-28T05:36:06;13.70;55.20
45044;DHT22;30784;48.490;9.688;2023-04-28T05:38:32;13.70;55.90
45044;DHT22;30784;48.490;9.688;2023-04-28T05:40:59;13.70;56.20
45044;DHT22;30784;48.490;9.688;2023-04-28T05:43:25;13.60;56.10
45044;DHT22;30784;48.490;9.688;2023-04-28T05:45:51;13.60;56.40
45044;DHT22;30784;48.490;9.688;2023-04-28T05:48:16;13.60;56.70
45044;DHT22;30784;48.490;9.688;2023-04-28T05:50:42;13.50;57.00
45044;DHT22;30784;48.490;9.688;2023-04-28T05:53:07;13.50;57.60
45044;DHT22;30784;48.490;9.688;2023-04-28T05:55:33;13.50;57.30
45044;DHT22;30784;48.490;9.688;2023-04-28T05:58:01;13.50;57.50
45044;DHT22;30784;48.490;9.688;2023-04-28T06:00:26;13.50;57.70
45044;DHT22;30784;48.490;9.688;2023-04-28T06:02:52;13.50;58.00
45044;DHT22;30784;48.490;9.688;2023-04-28T06:05:17;13.50;58.00
45044;DHT22;30784;48.490;9.688;2023-04-28T06:07:43;13.50;58.00
45044;DHT22;30784;48.490;9.688;2023-04-28T06:10:09;13.50;58.00
45044;DHT22;30784;48.490;9.688;2023-04-28T06:12:35;13.50;58.30
45044;DHT22;30784;48.490;9.688;2023-04-28T06:15:01;13.50;58.30
45044;DHT22;30784;48.490;9.688;2023-04-28T06:17:27;13.50;58.80
45044;DHT22;30784;48.490;9.688;2023-04-28T06:19:55;13.50;58.80
45044;DHT22;30784;48.490;9.688;2023-04-28T06:22:26;13.50;59.00
45044;DHT22;30784;48.490;9.688;2023-04-28T06:24:51;13.50;59.30
45044;DHT22;30784;48.490;9.688;2023-04-28T06:27:17;13.50;60.10
45044;DHT22;30784;48.490;9.688;2023-04-28T06:29:43;13.40;60.00
45044;DHT22;30784;48.490;9.688;2023-04-28T06:32:09;13.50;60.20
45044;DHT22;30784;48.490;9.688;2023-04-28T06:34:35;13.50;60.10
45044;DHT22;30784;48.490;9.688;2023-04-28T06:37:01;13.50;60.80
45044;DHT22;30784;48.490;9.688;2023-04-28T06:39:26;13.40;61.00
45044;DHT22;30784;48.490;9.688;2023-04-28T06:41:52;13.40;61.10
45044;DHT22;30784;48.490;9.688;2023-04-28T06:44:18;13.40;61.30
45044;DHT22;30784;48.490;9.688;2023-04-28T06:46:44;13.40;61.30
45044;DHT22;30784;48.490;9.688;2023-04-28T06:49:09;13.40;61.50
45044;DHT22;30784;48.490;9.688;2023-04-28T06:51:35;13.40;61.70
45044;DHT22;30784;48.490;9.688;2023-04-28T06:54:01;13.40;61.90
45044;DHT22;30784;48.490;9.688;2023-04-28T06:56:26;13.40;61.90
45044;DHT22;30784;48.490;9.688;2023-04-28T06:58:54;13.40;62.40
45044;DHT22;30784;48.490;9.688;2023-04-28T07:01:20;13.40;62.80
45044;DHT22;30784;48.490;9.688;2023-04-28T07:03:46;13.50;62.40
45044;DHT22;30784;48.490;9.688;2023-04-28T07:06:12;13.40;62.60
45044;DHT22;30784;48.490;9.688;2023-04-28T07:08:38;13.40;62.90
45044;DHT22;30784;48.490;9.688;2023-04-28T07:11:04;13.40;63.20
45044;DHT22;30784;48.490;9.688;2023-04-28T07:13:31;13.40;63.10
45044;DHT22;30784;48.490;9.688;2023-04-28T07:15:56;13.40;63.30
45044;DHT22;30784;48.490;9.688;2023-04-28T07:18:22;13.50;63.70
45044;DHT22;30784;48.490;9.688;2023-04-28T07:20:48;13.50;63.70
45044;DHT22;30784;48.490;9.688;2023-04-28T07:23:13;13.50;64.10
45044;DHT22;30784;48.490;9.688;2023-04-28T07:25:39;13.50;64.10
45044;DHT22;30784;48.490;9.688;2023-04-28T07:28:05;13.50;64.00
45044;DHT22;30784;48.490;9.688;2023-04-28T07:30:31;13.50;64.20
45044;DHT22;30784;48.490;9.688;2023-04-28T07:32:57;13.50;64.40
45044;DHT22;30784;48.490;9.688;2023-04-28T07:35:23;13.50;64.80
45044;DHT22;30784;48.490;9.688;2023-04-28T07:37:49;13.50;64.60
45044;DHT22;30784;48.490;9.688;2023-04-28T07:40:15;13.50;64.70
45044;DHT22;30784;48.490;9.688;2023-04-28T07:42:40;13.50;64.80
45044;DHT22;30784;48.490;9.688;2023-04-28T07:45:07;13.50;64.70
45044;DHT22;30784;48.490;9.688;2023-04-28T07:47:33;13.50;64.80
45044;DHT22;30784;48.490;9.688;2023-04-28T07:49:59;13.60;65.00
45044;DHT22;30784;48.490;9.688;2023-04-28T07:52:27;13.60;65.40
45044;DHT22;30784;48.490;9.688;2023-04-28T07:54:53;13.60;64.90
45044;DHT22;30784;48.490;9.688;2023-04-28T07:57:18;13.60;65.20
45044;DHT22;30784;48.490;9.688;2023-04-28T07:59:44;13.70;65.20
45044;DHT22;30784;48.490;9.688;2023-04-28T08:02:09;13.70;65.50
45044;DHT22;30784;48.490;9.688;2023-04-28T08:04:37;13.70;65.30
45044;DHT22;30784;48.490;9.688;2023-04-28T08:07:03;13.70;65.30
45044;DHT22;30784;48.490;9.688;2023-04-28T08:09:29;13.70;65.60
45044;DHT22;30784;48.490;9.688;2023-04-28T08:11:54;13.70;65.70
45044;DHT22;30784;48.490;9.688;2023-04-28T08:14:20;13.80;65.40
45044;DHT22;30784;48.490;9.688;2023-04-28T08:16:45;13.80;65.60
45044;DHT22;30784;48.490;9.688;2023-04-28T08:19:11;13.80;65.90
45044;DHT22;30784;48.490;9.688;2023-04-28T08:21:37;13.80;65.90
45044;DHT22;30784;48.490;9.688;2023-04-28T08:24:02;13.80;65.80
45044;DHT22;30784;48.490;9.688;2023-04-28T08:26:28;13.80;65.80
45044;DHT22;30784;48.490;9.688;2023-04-28T08:28:53;13.80;65.90
45044;DHT22;30784;48.490;9.688;2023-04-28T08:31:19;13.90;65.90
45044;DHT22;30784;48.490;9.688;2023-04-28T08:33:45;13.90;66.10
45044;DHT22;30784;48.490;9.688;2023-04-28T08:36:13;13.90;66.20
45044;DHT22;30784;48.490;9.688;2023-04-28T08:38:39;13.90;66.00
45044;DHT22;30784;48.490;9.688;2023-04-28T08:41:06;13.90;66.30
45044;DHT22;30784;48.490;9.688;2023-04-28T08:43:34;13.90;66.30
45044;DHT22;30784;48.490;9.688;2023-04-28T08:46:05;13.90;66.30
45044;DHT22;30784;48.490;9.688;2023-04-28T08:48:37;13.90;66.40
45044;DHT22;30784;48.490;9.688;2023-04-28T08:51:05;14.00;66.50
45044;DHT22;30784;48.490;9.688;2023-04-28T08:53:31;14.00;66.70
45044;DHT22;30784;48.490;9.688;2023-04-28T08:56:01;14.00;66.70
45044;DHT22;30784;48.490;9.688;2023-04-28T08:58:29;14.00;66.60
45044;DHT22;30784;48.490;9.688;2023-04-28T09:00:55;14.00;66.70
45044;DHT22;30784;48.490;9.688;2023-04-28T09:03:20;14.10;66.90
45044;DHT22;30784;48.490;9.688;2023-04-28T09:05:46;13.90;66.90
45044;DHT22;30784;48.490;9.688;2023-04-28T09:08:12;14.10;67.50
45044;DHT22;30784;48.490;9.688;2023-04-28T09:10:38;14.20;67.10
45044;DHT22;30784;48.490;9.688;2023-04-28T09:13:04;14.20;67.20
45044;DHT22;30784;48.490;9.688;2023-04-28T09:15:31;14.20;67.50
45044;DHT22;30784;48.490;9.688;2023-04-28T09:17:57;14.20;67.40
45044;DHT22;30784;48.490;9.688;2023-04-28T09:20:28;14.30;67.40
45044;DHT22;30784;48.490;9.688;2023-04-28T09:22:55;14.30;67.40
45044;DHT22;30784;48.490;9.688;2023-04-28T09:25:22;14.40;67.50
45044;DHT22;30784;48.490;9.688;2023-04-28T09:27:48;14.40;67.50
45044;DHT22;30784;48.490;9.688;2023-04-28T09:30:14;14.50;67.50
45044;DHT22;30784;48.490;9.688;2023-04-28T09:32:40;14.50;67.50
45044;DHT22;30784;48.490;9.688;2023-04-28T09:35:06;14.50;67.50
45044;DHT22;30784;48.490;9.688;2023-04-28T09:37:33;14.50;67.50
45044;DHT22;30784;48.490;9.688;2023-04-28T09:40:09;14.50;67.60
45044;DHT22;30784;48.490;9.688;2023-04-28T09:42:41;14.60;67.60
45044;DHT22;30784;48.490;9.688;2023-04-28T09:45:08;14.60;67.70
45044;DHT22;30784;48.490;9.688;2023-04-28T09:47:36;14.60;67.90
45044;DHT22;30784;48.490;9.688;2023-04-28T09:50:04;14.70;67.90
45044;DHT22;30784;48.490;9.688;2023-04-28T09:52:32;14.70;68.00
45044;DHT22;30784;48.490;9.688;2023-04-28T09:55:00;14.70;67.90
45044;DHT22;30784;48.490;9.688;2023-04-28T09:57:31;14.80;68.00
45044;DHT22;30784;48.490;9.688;2023-04-28T09:59:57;14.80;68.00
45044;DHT22;30784;48.490;9.688;2023-04-28T10:02:24;14.90;68.10
45044;DHT22;30784;48.490;9.688;2023-04-28T10:04:50;14.90;68.10
45044;DHT22;30784;48.490;9.688;2023-04-28T10:07:17;14.90;68.20
45044;DHT22;30784;48.490;9.688;2023-04-28T10:09:48;14.90;68.30
45044;DHT22;30784;48.490;9.688;2023-04-28T10:12:20;15.00;68.50
45044;DHT22;30784;48.490;9.688;2023-04-28T10:14:47;15.00;68.50
45044;DHT22;30784;48.490;9.688;2023-04-28T10:17:15;15.10;68.70
45044;DHT22;30784;48.490;9.688;2023-04-28T10:19:43;15.10;68.70
45044;DHT22;30784;48.490;9.688;2023-04-28T10:27:42;15.30;68.60
45044;DHT22;30784;48.490;9.688;2023-04-28T10:30:22;15.30;68.80
45044;DHT22;30784;48.490;9.688;2023-04-28T10:35:43;15.50;68.50
45044;DHT22;30784;48.490;9.688;2023-04-28T10:38:11;15.60;68.90
45044;DHT22;30784;48.490;9.688;2023-04-28T10:40:45;15.70;68.80
45044;DHT22;30784;48.490;9.688;2023-04-28T10:43:12;15.70;68.50
45044;DHT22;30784;48.490;9.688;2023-04-28T10:56:23;16.00;68.30
45044;DHT22;30784;48.490;9.688;2023-04-28T10:58:53;16.10;68.50
45044;DHT22;30784;48.490;9.688;2023-04-28T11:03:58;16.30;68.50
45044;DHT22;30784;48.490;9.688;2023-04-28T11:06:40;16.40;68.20
45044;DHT22;30784;48.490;9.688;2023-04-28T11:11:38;16.60;68.00
45044;DHT22;30784;48.490;9.688;2023-04-28T11:21:47;17.00;67.60
45044;DHT22;30784;48.490;9.688;2023-04-28T11:24:13;17.00;67.10
45044;DHT22;30784;48.490;9.688;2023-04-28T11:26:39;17.10;66.30
45044;DHT22;30784;48.490;9.688;2023-04-28T11:29:05;17.20;66.30
45044;DHT22;30784;48.490;9.688;2023-04-28T11:31:31;17.30;66.20
45044;DHT22;30784;48.490;9.688;2023-04-28T11:34:04;17.30;66.20
45044;DHT22;30784;48.490;9.688;2023-04-28T11:36:37;17.30;65.60
45044;DHT22;30784;48.490;9.688;2023-04-28T11:39:04;17.40;65.40
45044;DHT22;30784;48.490;9.688;2023-04-28T11:41:31;17.50;65.50
45044;DHT22;30784;48.490;9.688;2023-04-28T11:43:58;17.50;65.10
45044;DHT22;30784;48.490;9.688;2023-04-28T11:46:25;17.40;65.50
45044;DHT22;30784;48.490;9.688;2023-04-28T11:49:04;17.50;64.60
45044;DHT22;30784;48.490;9.688;2023-04-28T11:51:37;17.40;64.50
45044;DHT22;30784;48.490;9.688;2023-04-28T11:54:04;17.50;64.70
45044;DHT22;30784;48.490;9.688;2023-04-28T11:56:39;17.50;64.80
45044;DHT22;30784;48.490;9.688;2023-04-28T11:59:07;17.50;64.90
45044;DHT22;30784;48.490;9.688;2023-04-28T12:01:47;17.50;65.00
45044;DHT22;30784;48.490;9.688;2023-04-28T12:04:14;17.60;65.00
45044;DHT22;30784;48.490;9.688;2023-04-28T12:06:58;17.70;65.30
45044;DHT22;30784;48.490;9.688;2023-04-28T12:09:24;17.70;64.30
45044;DHT22;30784;48.490;9.688;2023-04-28T12:11:57;17.70;64.10
45044;DHT22;30784;48.490;9.688;2023-04-28T12:14:24;17.70;64.00
45044;DHT22;30784;48.490;9.688;2023-04-28T12:16:50;17.80;63.90
45044;DHT22;30784;48.490;9.688;2023-04-28T12:19:16;17.90;63.90
45044;DHT22;30784;48.490;9.688;2023-04-28T12:21:43;17.90;64.10
45044;DHT22;30784;48.490;9.688;2023-04-28T12:24:19;18.00;64.00
45044;DHT22;30784;48.490;9.688;2023-04-28T12:26:47;18.00;63.80
45044;DHT22;30784;48.490;9.688;2023-04-28T12:29:38;18.10;63.20
45044;DHT22;30784;48.490;9.688;2023-04-28T12:32:05;18.10;63.30
45044;DHT22;30784;48.490;9.688;2023-04-28T12:34:31;18.10;63.00
45044;DHT22;30784;48.490;9.688;2023-04-28T12:37:01;18.10;62.60
45044;DHT22;30784;48.490;9.688;2023-04-28T12:39:33;18.20;62.10
45044;DHT22;30784;48.490;9.688;2023-04-28T12:41:59;18.20;62.30
45044;DHT22;30784;48.490;9.688;2023-04-28T12:44:36;18.20;62.20
45044;DHT22;30784;48.490;9.688;2023-04-28T12:47:06;18.20;61.70
45044;DHT22;30784;48.490;9.688;2023-04-28T12:49:34;18.30;61.60
45044;DHT22;30784;48.490;9.688;2023-04-28T12:52:00;18.30;61.70
45044;DHT22;30784;48.490;9.688;2023-04-28T12:54:25;18.30;61.60
45044;DHT22;30784;48.490;9.688;2023-04-28T12:56:51;18.30;61.40
45044;DHT22;30784;48.490;9.688;2023-04-28T12:59:19;18.30;61.40
45044;DHT22;30784;48.490;9.688;2023-04-28T13:01:45;18.30;61.10
45044;DHT22;30784;48.490;9.688;2023-04-28T13:04:11;18.40;60.90
45044;DHT22;30784;48.490;9.688;2023-04-28T13:06:37;18.30;61.00
45044;DHT22;30784;48.490;9.688;2023-04-28T13:09:04;18.40;61.30
45044;DHT22;30784;48.490;9.688;2023-04-28T13:11:30;18.40;61.10
45044;DHT22;30784;48.490;9.688;2023-04-28T13:13:56;18.40;60.60
45044;DHT22;30784;48.490;9.688;2023-04-28T13:16:22;18.30;60.60
45044;DHT22;30784;48.490;9.688;2023-04-28T13:18:53;18.40;60.30
45044;DHT22;30784;48.490;9.688;2023-04-28T13:21:19;18.30;60.40
45044;DHT22;30784;48.490;9.688;2023-04-28T13:23:44;18.30;60.30
45044;DHT22;30784;48.490;9.688;2023-04-28T13:26:10;18.30;60.10
45044;DHT22;30784;48.490;9.688;2023-04-28T13:28:36;18.40;60.30
45044;DHT22;30784;48.490;9.688;2023-04-28T13:31:01;18.40;60.20
45044;DHT22;30784;48.490;9.688;2023-04-28T13:33:27;18.40;60.60
45044;DHT22;30784;48.490;9.688;2023-04-28T13:35:57;18.50;60.60
45044;DHT22;30784;48.490;9.688;2023-04-28T13:38:22;18.50;60.20
45044;DHT22;30784;48.490;9.688;2023-04-28T13:40:48;18.60;59.70
45044;DHT22;30784;48.490;9.688;2023-04-28T13:43:14;18.70;59.90
45044;DHT22;30784;48.490;9.688;2023-04-28T13:45:39;18.80;59.90
45044;DHT22;30784;48.490;9.688;2023-04-28T13:48:05;18.90;59.80
45044;DHT22;30784;48.490;9.688;2023-04-28T13:50:30;19.00;59.30
45044;DHT22;30784;48.490;9.688;2023-04-28T13:52:56;19.10;59.10
45044;DHT22;30784;48.490;9.688;2023-04-28T13:55:23;19.20;58.90
45044;DHT22;30784;48.490;9.688;2023-04-28T13:57:53;19.20;58.50
45044;DHT22;30784;48.490;9.688;2023-04-28T14:00:18;19.30;58.30
45044;DHT22;30784;48.490;9.688;2023-04-28T14:02:48;19.30;58.20
45044;DHT22;30784;48.490;9.688;2023-04-28T14:05:14;19.40;59.30
45044;DHT22;30784;48.490;9.688;2023-04-28T14:07:41;19.50;57.60
45044;DHT22;30784;48.490;9.688;2023-04-28T14:10:07;19.60;57.00
45044;DHT22;30784;48.490;9.688;2023-04-28T14:12:33;19.60;56.50
45044;DHT22;30784;48.490;9.688;2023-04-28T14:14:59;19.70;56.40
45044;DHT22;30784;48.490;9.688;2023-04-28T14:17:24;19.70;56.60
45044;DHT22;30784;48.490;9.688;2023-04-28T14:19:50;19.70;57.00
45044;DHT22;30784;48.490;9.688;2023-04-28T14:22:16;19.70;57.10
45044;DHT22;30784;48.490;9.688;2023-04-28T14:24:41;19.70;57.30
45044;DHT22;30784;48.490;9.688;2023-04-28T14:27:07;19.70;57.40
45044;DHT22;30784;48.490;9.688;2023-04-28T14:29:33;19.70;57.50
45044;DHT22;30784;48.490;9.688;2023-04-28T14:31:59;19.70;57.10
45044;DHT22;30784;48.490;9.688;2023-04-28T14:34:25;19.70;57.00
45044;DHT22;30784;48.490;9.688;2023-04-28T14:36:51;19.60;57.10
45044;DHT22;30784;48.490;9.688;2023-04-28T14:39:17;19.60;57.20
45044;DHT22;30784;48.490;9.688;2023-04-28T14:41:42;19.60;57.20
45044;DHT22;30784;48.490;9.688;2023-04-28T14:44:08;19.60;57.80
45044;DHT22;30784;48.490;9.688;2023-04-28T14:46:34;19.60;57.30
45044;DHT22;30784;48.490;9.688;2023-04-28T14:49:01;19.50;57.30
45044;DHT22;30784;48.490;9.688;2023-04-28T14:51:27;19.50;57.50
45044;DHT22;30784;48.490;9.688;2023-04-28T14:53:53;19.40;57.50
45044;DHT22;30784;48.490;9.688;2023-04-28T14:56:19;19.40;57.60
45044;DHT22;30784;48.490;9.688;2023-04-28T14:58:45;19.30;57.60
45044;DHT22;30784;48.490;9.688;2023-04-28T15:01:11;19.30;57.80
45044;DHT22;30784;48.490;9.688;2023-04-28T15:03:37;19.20;57.80
45044;DHT22;30784;48.490;9.688;2023-04-28T15:06:03;19.20;57.90
45044;DHT22;30784;48.490;9.688;2023-04-28T15:08:30;19.10;58.00
45044;DHT22;30784;48.490;9.688;2023-04-28T15:10:56;19.00;58.10
45044;DHT22;30784;48.490;9.688;2023-04-28T15:13:22;18.90;58.20
45044;DHT22;30784;48.490;9.688;2023-04-28T15:15:49;18.80;58.30
45044;DHT22;30784;48.490;9.688;2023-04-28T15:18:15;18.80;58.40
45044;DHT22;30784;48.490;9.688;2023-04-28T15:20:42;18.70;58.60
45044;DHT22;30784;48.490;9.688;2023-04-28T15:23:08;18.60;58.80
45044;DHT22;30784;48.490;9.688;2023-04-28T15:25:34;18.50;59.10
45044;DHT22;30784;48.490;9.688;2023-04-28T15:27:59;18.40;59.20
45044;DHT22;30784;48.490;9.688;2023-04-28T15:30:25;18.40;59.60
45044;DHT22;30784;48.490;9.688;2023-04-28T15:32:51;18.30;59.80
45044;DHT22;30784;48.490;9.688;2023-04-28T15:35:17;18.20;59.90
45044;DHT22;30784;48.490;9.688;2023-04-28T15:37:44;18.20;59.90
45044;DHT22;30784;48.490;9.688;2023-04-28T15:40:13;18.10;60.10
45044;DHT22;30784;48.490;9.688;2023-04-28T15:42:39;18.00;60.10
45044;DHT22;30784;48.490;9.688;2023-04-28T15:45:16;18.00;60.70
45044;DHT22;30784;48.490;9.688;2023-04-28T15:47:43;18.00;60.90
45044;DHT22;30784;48.490;9.688;2023-04-28T15:50:11;17.90;61.00
45044;DHT22;30784;48.490;9.688;2023-04-28T15:52:40;17.90;61.20
45044;DHT22;30784;48.490;9.688;2023-04-28T15:55:14;17.80;61.30
45044;DHT22;30784;48.490;9.688;2023-04-28T15:57:40;17.80;60.90